»·PEaware :: N250SM KSAN-KVNY

N250SM :: KSAN-KVNY

FLIGHT INFORMATION

Flight Status: Arrived
Operator: Privately registered:
United States
More flights under this callsign
Pilot: Rick S. (31632)
Aircraft: CIRRUS SR-20
(SR20)
More flights by this aircraft type
Origin: KSAN San Diego Intl-Lindbergh
United States
Destination: KVNY Van Nuys
United States
More flights between these airports :: More routes between these airports
Route: OCN V23 POPPR SMO125 SMO SMO317 CANOG
File this flight plan on PilotEdge
Remarks: My Very First IFR Flight - No idea what I'm doing...
Altitude:
(Current/Filed)
6,000ft
Speed:
(Current/Filed)
140kts
Departed: 10-Feb-21 09:37 PM
Arrived: 10-Feb-21 10:31 PM
Distance/Time
Traveled:
110nm/0:54
Distance/Time
To Go:
Arrived

Flight Plot

Page will automatically refresh every two minutes.


Map Options




Map Legend


Flown Route
Filed Route
Departure Airport
Arrival Airport
Navaid (VOR, NDB)
Fix

Horizontal Profiles

Position Reports

Time Latitude Longitude Heading Altitude Ground
Speed
10-Feb-21 20:56 32.733414 -117.178488 17 20ft 0kts
10-Feb-21 20:57 32.733414 -117.178488 17 20ft 0kts
10-Feb-21 20:58 32.733414 -117.178488 17 20ft 0kts
10-Feb-21 20:59 32.733414 -117.178488 17 20ft 0kts
10-Feb-21 21:00 32.733414 -117.178488 17 20ft 0kts
10-Feb-21 21:01 32.733414 -117.178488 17 20ft 0kts
10-Feb-21 21:02 32.733414 -117.178488 17 20ft 0kts
10-Feb-21 21:03 32.733414 -117.178488 17 20ft 0kts
10-Feb-21 21:04 32.733414 -117.178488 17 20ft 0kts
10-Feb-21 21:05 32.733414 -117.178488 17 20ft 0kts
10-Feb-21 21:06 32.733414 -117.178488 17 20ft 0kts
10-Feb-21 21:07 32.733414 -117.178488 17 20ft 0kts
10-Feb-21 21:08 32.733414 -117.178488 17 20ft 0kts
10-Feb-21 21:09 32.733414 -117.178488 17 20ft 0kts
10-Feb-21 21:10 32.733414 -117.178488 17 20ft 0kts
10-Feb-21 21:11 32.733414 -117.178488 17 20ft 0kts
10-Feb-21 21:12 32.733414 -117.178488 17 20ft 0kts
10-Feb-21 21:13 32.733414 -117.178488 17 20ft 0kts
10-Feb-21 21:14 32.733414 -117.178488 17 20ft 0kts
10-Feb-21 21:15 32.733414 -117.178488 17 20ft 0kts
10-Feb-21 21:16 32.733414 -117.178488 17 20ft 0kts
10-Feb-21 21:17 32.733414 -117.178488 17 20ft 0kts
10-Feb-21 21:18 32.733414 -117.178488 17 20ft 0kts
10-Feb-21 21:19 32.733414 -117.178488 17 20ft 0kts
10-Feb-21 21:20 32.733414 -117.178488 17 20ft 0kts
10-Feb-21 21:21 32.733414 -117.178488 17 20ft 0kts
10-Feb-21 21:22 32.733414 -117.178488 17 20ft 0kts
10-Feb-21 21:23 32.733414 -117.178488 17 20ft 0kts
10-Feb-21 21:24 32.733414 -117.178488 17 20ft 0kts
10-Feb-21 21:25 32.733414 -117.178488 17 20ft 0kts
10-Feb-21 21:26 32.733414 -117.178488 17 20ft 0kts
10-Feb-21 21:27 32.733438 -117.178817 262 20ft 1kts
10-Feb-21 21:29 32.732508 -117.179955 236 20ft 11kts
10-Feb-21 21:30 32.732454 -117.180322 293 20ft 0kts
10-Feb-21 21:31 32.733272 -117.178175 23 20ft 15kts
10-Feb-21 21:32 32.733428 -117.178294 261 20ft 7kts
10-Feb-21 21:33 32.731640 -117.177031 112 20ft 16kts
10-Feb-21 21:34 32.731403 -117.176706 164 20ft 0kts
10-Feb-21 21:35 32.731227 -117.175814 119 20ft 20kts
10-Feb-21 21:36 32.731077 -117.175575 132 20ft 0kts
10-Feb-21 21:37 32.731653 -117.181916 286 68ft 78kts
10-Feb-21 21:38 32.737084 -117.203502 308 1083ft 71kts
10-Feb-21 21:39 32.752010 -117.218649 321 1978ft 75kts
10-Feb-21 21:40 32.772232 -117.238501 321 2431ft 98kts
10-Feb-21 21:41 32.793427 -117.259593 321 2937ft 99kts
10-Feb-21 21:42 32.817989 -117.271168 342 3375ft 105kts
10-Feb-21 21:43 32.846749 -117.281938 343 4070ft 104kts
10-Feb-21 21:43 32.869532 -117.290103 343 4719ft 99kts
10-Feb-21 21:45 32.900110 -117.300804 344 5633ft 94kts
10-Feb-21 21:46 32.927566 -117.310275 344 6001ft 120kts
10-Feb-21 21:46 32.956487 -117.320192 344 5982ft 132kts
10-Feb-21 21:48 32.996962 -117.334046 344 5981ft 128kts
10-Feb-21 21:48 33.025946 -117.343983 344 5980ft 129kts
10-Feb-21 21:49 33.060886 -117.355956 344 5980ft 129kts
10-Feb-21 21:50 33.095906 -117.367958 344 5980ft 130kts
10-Feb-21 21:51 33.130910 -117.379877 344 5982ft 131kts
10-Feb-21 21:52 33.166033 -117.391918 344 5982ft 130kts
10-Feb-21 21:53 33.200956 -117.403921 344 5982ft 130kts
10-Feb-21 21:54 33.236157 -117.416011 346 5981ft 130kts
10-Feb-21 21:55 33.264501 -117.441688 312 5982ft 132kts
10-Feb-21 21:56 33.289840 -117.474295 317 5982ft 132kts
10-Feb-21 21:57 33.316184 -117.505630 318 5982ft 132kts
10-Feb-21 21:58 33.342666 -117.536655 318 5982ft 132kts
10-Feb-21 21:59 33.369238 -117.567712 318 5982ft 132kts
10-Feb-21 22:00 33.395725 -117.598674 318 5982ft 132kts
10-Feb-21 22:01 33.422252 -117.629698 318 5981ft 132kts
10-Feb-21 22:02 33.448780 -117.660755 317 5981ft 132kts
10-Feb-21 22:03 33.487578 -117.706158 320 5980ft 131kts
10-Feb-21 22:04 33.650445 -117.966547 307 5983ft 132kts
10-Feb-21 22:05 33.835239 -118.275949 307 5980ft 132kts
10-Feb-21 22:06 33.861048 -118.306766 321 5980ft 131kts
10-Feb-21 22:07 33.889194 -118.335059 321 5981ft 131kts
10-Feb-21 22:08 33.917270 -118.363263 321 5981ft 131kts
10-Feb-21 22:09 33.945471 -118.391578 321 5979ft 131kts
10-Feb-21 22:10 33.973610 -118.419876 321 5977ft 131kts
10-Feb-21 22:11 34.001751 -118.448208 321 5976ft 132kts
10-Feb-21 22:12 34.035850 -118.460964 352 5976ft 130kts
10-Feb-21 22:13 34.071951 -118.467569 347 5974ft 130kts
10-Feb-21 22:14 34.107253 -118.478945 345 5973ft 131kts
10-Feb-21 22:15 34.142524 -118.490657 345 5972ft 131kts
10-Feb-21 22:16 34.174618 -118.511908 329 5970ft 132kts
10-Feb-21 22:17 34.206120 -118.535451 329 5967ft 132kts
10-Feb-21 22:18 34.219826 -118.574671 283 5966ft 135kts
10-Feb-21 22:19 34.249231 -118.593226 352 5966ft 131kts
10-Feb-21 22:20 34.286031 -118.599009 352 5971ft 131kts
10-Feb-21 22:21 34.322635 -118.604765 353 5976ft 131kts
10-Feb-21 22:22 34.356941 -118.599658 63 5974ft 134kts
10-Feb-21 22:23 34.337090 -118.577110 169 5803ft 94kts
10-Feb-21 22:24 34.317095 -118.563239 148 5678ft 90kts
10-Feb-21 22:25 34.296459 -118.544237 144 5013ft 93kts
10-Feb-21 22:26 34.283298 -118.522307 97 4082ft 79kts
10-Feb-21 22:27 34.267081 -118.503301 145 2945ft 86kts
10-Feb-21 22:28 34.244328 -118.493847 175 1715ft 83kts
10-Feb-21 22:29 34.221610 -118.491561 176 964ft 76kts
10-Feb-21 22:30 34.206624 -118.490069 176 804ft 25kts
10-Feb-21 22:31 34.202923 -118.491293 358 804ft 0kts
10-Feb-21 22:32 34.202923 -118.491293 358 804ft 0kts
10-Feb-21 22:33 34.202923 -118.491293 358 804ft 0kts
10-Feb-21 22:34 34.202923 -118.491293 358 804ft 0kts
10-Feb-21 22:35 34.202923 -118.491293 358 804ft 0kts
10-Feb-21 22:36 34.202923 -118.491293 358 804ft 0kts
10-Feb-21 22:37 34.202923 -118.491293 358 804ft 0kts
10-Feb-21 22:38 34.202923 -118.491293 358 804ft 0kts
10-Feb-21 22:39 34.202923 -118.491293 358 804ft 0kts
10-Feb-21 22:40 34.202923 -118.491293 358 804ft 0kts
10-Feb-21 22:41 34.202923 -118.491293 358 804ft 0kts
10-Feb-21 22:42 34.202923 -118.491293 358 804ft 0kts
10-Feb-21 22:43 34.202923 -118.491293 358 804ft 0kts
10-Feb-21 22:44 34.202923 -118.491293 358 804ft 0kts

Navigation Log

Ident Type
Flight plan parsing failed, navigation log unavailable